Time;durP1;ratioP1;P1;durP2;ratioP2;P2;SDS_P1;SDS_P2;PMS_P1;PMS_P2;Temp;Humidity;BMP_temperature;BMP_pressure;BME280_temperature;BME280_humidity;BME280_pressure;Samples;Min_cycle;Max_cycle;Signal;HPM_P1;HPM_P2
2023/03/02 00:01:48;;;;;;;309.92;20.42;;;-0.10;100.00;;;;;;5026887;28;20045;-82
2023/03/02 00:04:21;;;;;;;207.57;16.42;;;-0.10;100.00;;;;;;5031953;28;20053;-81
2023/03/02 00:06:50;;;;;;;308.52;21.25;;;-0.20;100.00;;;;;;5038211;28;20160;-81
2023/03/02 00:09:17;;;;;;;274.67;21.25;;;-0.20;100.00;;;;;;5032676;28;20545;-82
2023/03/02 00:11:44;;;;;;;369.98;21.20;;;-0.20;100.00;;;;;;5032596;28;20049;-81
2023/03/02 00:14:11;;;;;;;168.18;16.30;;;-0.20;100.00;;;;;;5044711;28;20044;-81
2023/03/02 00:16:39;;;;;;;165.90;15.50;;;-0.20;100.00;;;;;;5035896;28;20051;-79
2023/03/02 00:19:06;;;;;;;253.63;22.20;;;-0.10;100.00;;;;;;5045606;28;20059;-81
2023/03/02 00:21:32;;;;;;;357.48;19.50;;;-0.20;100.00;;;;;;5046163;28;20048;-81
2023/03/02 00:23:59;;;;;;;132.68;16.25;;;-0.30;100.00;;;;;;5033680;28;20056;-80
2023/03/02 00:26:26;;;;;;;117.38;15.25;;;-0.20;100.00;;;;;;5037825;28;20135;-81
2023/03/02 00:28:53;;;;;;;127.18;16.42;;;-0.20;100.00;;;;;;5044531;28;20051;-81
2023/03/02 00:31:20;;;;;;;189.25;17.23;;;-0.20;100.00;;;;;;5023646;28;20456;-81
2023/03/02 00:33:47;;;;;;;109.82;15.50;;;-0.20;100.00;;;;;;5022360;28;20056;-81
2023/03/02 00:36:19;;;;;;;260.60;22.08;;;-0.20;100.00;;;;;;5020415;28;20042;-81
2023/03/02 00:38:46;;;;;;;132.95;14.48;;;-0.20;100.00;;;;;;5014348;28;20160;-81
2023/03/02 00:41:15;;;;;;;267.45;16.95;;;-0.10;100.00;;;;;;5021432;28;20552;-81
2023/03/02 00:43:42;;;;;;;171.30;15.40;;;-0.20;100.00;;;;;;5031460;28;20061;-81
2023/03/02 00:46:27;;;;;;;233.68;17.58;;;-0.30;100.00;;;;;;5011896;28;20103;-81
2023/03/02 00:48:54;;;;;;;;;;;-0.30;100.00;;;;;;5012251;28;20502;-81
2023/03/02 00:51:21;;;;;;;181.10;15.93;;;-0.30;100.00;;;;;;5023404;28;20282;-81
2023/03/02 00:53:47;;;;;;;212.25;15.63;;;-0.30;100.00;;;;;;5021854;28;20053;-81
2023/03/02 00:56:14;;;;;;;228.50;15.40;;;-0.40;100.00;;;;;;5016817;28;20402;-81
2023/03/02 00:58:41;;;;;;;192.18;14.70;;;-0.30;100.00;;;;;;5023525;28;20201;-81
2023/03/02 01:01:10;;;;;;;115.35;13.32;;;-0.30;100.00;;;;;;5013951;28;20780;-81
2023/03/02 01:03:37;;;;;;;131.27;13.88;;;-0.40;100.00;;;;;;5019668;28;20049;-82
2023/03/02 01:06:05;;;;;;;119.53;13.35;;;-0.40;100.00;;;;;;5017497;28;20136;-82
2023/03/02 01:08:32;;;;;;;202.45;14.48;;;-0.40;100.00;;;;;;5015032;28;20666;-81
2023/03/02 01:11:00;;;;;;;213.20;16.60;;;-0.30;100.00;;;;;;5013540;28;20045;-81
2023/03/02 01:13:27;;;;;;;217.50;17.00;;;-0.40;100.00;;;;;;5033768;28;20122;-81
2023/03/02 01:16:03;;;;;;;182.82;17.15;;;-0.50;100.00;;;;;;5012272;28;20049;-81
2023/03/02 01:18:31;;;;;;;238.52;16.42;;;-0.50;100.00;;;;;;5032709;28;20817;-81
2023/03/02 01:21:09;;;;;;;109.30;12.68;;;-0.50;100.00;;;;;;5024203;28;20056;-81
2023/03/02 01:23:36;;;;;;;99.57;13.27;;;-0.40;100.00;;;;;;5023464;28;20056;-81
2023/03/02 01:26:03;;;;;;;180.68;18.27;;;-0.30;100.00;;;;;;5008847;28;20687;-81
2023/03/02 01:28:29;;;;;;;200.32;16.25;;;-0.30;100.00;;;;;;5013663;28;20053;-81
2023/03/02 01:30:56;;;;;;;208.52;16.25;;;-0.30;100.00;;;;;;5030700;28;20098;-81
2023/03/02 01:33:23;;;;;;;137.50;13.20;;;-0.40;100.00;;;;;;5073000;28;20045;-80
2023/03/02 01:35:50;;;;;;;155.65;14.93;;;-0.40;100.00;;;;;;5036580;28;20044;-81
2023/03/02 01:38:17;;;;;;;153.55;16.13;;;-0.30;100.00;;;;;;5040677;28;20044;-80
2023/03/02 01:40:44;;;;;;;182.32;14.75;;;-0.30;100.00;;;;;;5042878;28;20475;-80
2023/03/02 01:43:15;;;;;;;126.90;14.00;;;-0.40;100.00;;;;;;5018847;28;20088;-80
2023/03/02 01:45:52;;;;;;;143.93;13.70;;;-0.30;100.00;;;;;;5037068;28;20075;-80
2023/03/02 01:48:26;;;;;;;94.32;12.60;;;-0.30;100.00;;;;;;5038905;28;20512;-80
2023/03/02 01:50:54;;;;;;;132.07;14.38;;;-0.30;100.00;;;;;;5058534;28;20056;-80
2023/03/02 01:53:23;;;;;;;168.45;16.13;;;-0.30;100.00;;;;;;5030978;28;20080;-80
2023/03/02 01:55:50;;;;;;;138.65;15.73;;;-0.30;100.00;;;;;;5029375;28;20458;-80
2023/03/02 01:58:18;;;;;;;137.93;19.13;;;-0.30;100.00;;;;;;5034025;28;20049;-80
2023/03/02 02:00:45;;;;;;;152.77;15.50;;;-0.30;100.00;;;;;;5034550;28;20061;-80
2023/03/02 02:03:19;;;;;;;206.80;17.67;;;-0.20;100.00;;;;;;5039038;28;20148;-81
2023/03/02 02:05:59;;;;;;;146.85;15.65;;;-0.20;100.00;;;;;;5034520;28;20053;-81
2023/03/02 02:08:27;;;;;;;133.85;16.63;;;-0.20;100.00;;;;;;5065584;28;20060;-80
2023/03/02 02:10:54;;;;;;;226.80;18.58;;;-0.20;100.00;;;;;;5031733;28;20060;-80
2023/03/02 02:13:21;;;;;;;214.82;19.60;;;-0.10;100.00;;;;;;5038411;28;20580;-80
2023/03/02 02:15:48;;;;;;;185.85;15.80;;;-0.10;100.00;;;;;;5065139;28;20079;-80
2023/03/02 02:18:15;;;;;;;203.30;16.83;;;-0.10;100.00;;;;;;5040581;28;20041;-80
2023/03/02 02:20:47;;;;;;;169.73;15.38;;;-0.10;100.00;;;;;;5043854;28;20056;-80
2023/03/02 02:23:38;;;;;;;265.23;19.83;;;-0.20;100.00;;;;;;5028947;28;20136;-80
2023/03/02 02:26:30;;;;;;;156.93;16.27;;;-0.20;100.00;;;;;;5041988;28;20049;-81
2023/03/02 02:29:02;;;;;;;191.98;18.23;;;-0.20;100.00;;;;;;5048608;28;20624;-81
2023/03/02 02:31:35;;;;;;;191.40;17.55;;;-0.20;100.00;;;;;;5037933;28;20048;-81
2023/03/02 02:34:22;;;;;;;185.23;16.75;;;-0.20;100.00;;;;;;5042458;28;20044;-81
2023/03/02 02:36:54;;;;;;;202.18;18.38;;;-0.20;100.00;;;;;;5050795;28;20045;-81
2023/03/02 02:39:25;;;;;;;215.32;18.77;;;-0.10;100.00;;;;;;5052692;28;20064;-81
2023/03/02 02:41:55;;;;;;;217.60;18.30;;;-0.10;100.00;;;;;;5034730;28;20079;-80
2023/03/02 02:44:22;;;;;;;326.42;20.67;;;-0.10;100.00;;;;;;5054354;28;20053;-80
2023/03/02 02:46:49;;;;;;;315.60;21.15;;;-0.20;100.00;;;;;;5041556;28;20053;-80
2023/03/02 02:49:37;;;;;;;269.23;19.73;;;-0.20;100.00;;;;;;5038194;28;20136;-80
2023/03/02 02:52:05;;;;;;;194.30;17.80;;;-0.20;100.00;;;;;;5046907;28;20154;-80
2023/03/02 02:54:34;;;;;;;180.32;16.25;;;-0.20;100.00;;;;;;5050276;28;20075;-81
2023/03/02 02:57:02;;;;;;;225.70;16.08;;;-0.20;100.00;;;;;;5036892;28;20049;-81
2023/03/02 02:59:34;;;;;;;248.63;18.17;;;-0.20;100.00;;;;;;5037575;28;20060;-80
2023/03/02 03:02:01;;;;;;;247.32;17.00;;;-0.20;100.00;;;;;;5039516;28;20425;-81
2023/03/02 03:04:30;;;;;;;134.65;13.25;;;-0.30;100.00;;;;;;5031945;28;20053;-81
2023/03/02 03:07:00;;;;;;;194.70;18.75;;;-0.30;100.00;;;;;;5040754;28;20049;-81
2023/03/02 03:09:28;;;;;;;169.60;13.85;;;-0.30;100.00;;;;;;5042812;28;20052;-81
2023/03/02 03:11:59;;;;;;;353.13;18.77;;;-0.30;100.00;;;;;;5040925;28;20049;-80
2023/03/02 03:14:32;;;;;;;190.63;15.38;;;-0.30;100.00;;;;;;5043670;28;20119;-81
2023/03/02 03:17:00;;;;;;;252.40;17.52;;;-0.30;100.00;;;;;;5052185;28;20053;-81
2023/03/02 03:19:30;;;;;;;302.20;17.27;;;-0.30;100.00;;;;;;5046350;28;20091;-81
2023/03/02 03:21:59;;;;;;;256.23;17.85;;;-0.30;100.00;;;;;;5031297;28;20099;-81
2023/03/02 03:24:28;;;;;;;346.45;19.73;;;-0.30;100.00;;;;;;5039879;28;20735;-80
2023/03/02 03:26:56;;;;;;;283.30;18.48;;;-0.30;100.00;;;;;;5039079;28;20070;-80
2023/03/02 03:29:25;;;;;;;322.52;20.23;;;-0.30;100.00;;;;;;5033038;28;20451;-81
2023/03/02 03:31:54;;;;;;;247.40;17.60;;;-0.40;100.00;;;;;;5050904;28;20766;-81
2023/03/02 03:34:21;;;;;;;196.75;17.38;;;-0.40;100.00;;;;;;5033745;28;20401;-81
2023/03/02 03:36:49;;;;;;;271.95;17.35;;;-0.40;100.00;;;;;;5040583;28;20131;-82
2023/03/02 03:39:16;;;;;;;233.73;17.17;;;-0.40;100.00;;;;;;5034268;28;20055;-81
2023/03/02 03:41:44;;;;;;;242.65;16.60;;;-0.40;100.00;;;;;;5032143;28;20052;-81
2023/03/02 03:44:11;;;;;;;319.85;19.85;;;-0.40;100.00;;;;;;5045605;28;20049;-81
2023/03/02 03:46:38;;;;;;;212.25;16.85;;;-0.40;100.00;;;;;;5042980;28;20385;-80
2023/03/02 03:49:05;;;;;;;269.33;21.55;;;-0.50;100.00;;;;;;5035145;28;20045;-81
2023/03/02 03:51:34;;;;;;;291.48;18.92;;;-0.60;100.00;;;;;;5036626;28;20106;-81
2023/03/02 03:54:07;;;;;;;269.35;17.48;;;-0.50;100.00;;;;;;5039916;28;20045;-80
2023/03/02 03:56:38;;;;;;;107.80;12.77;;;-0.50;100.00;;;;;;5065581;28;20055;-80
2023/03/02 03:59:07;;;;;;;341.55;18.80;;;-0.40;100.00;;;;;;5041642;28;20045;-81
2023/03/02 04:01:34;;;;;;;203.05;14.18;;;-0.40;100.00;;;;;;5043705;28;20049;-82
2023/03/02 04:04:03;;;;;;;202.48;14.77;;;-0.50;100.00;;;;;;5074152;28;20044;-81
2023/03/02 04:06:30;;;;;;;276.98;17.45;;;-0.50;100.00;;;;;;5037398;28;20497;-82
2023/03/02 04:09:03;;;;;;;277.00;16.33;;;-0.50;100.00;;;;;;5034039;28;20129;-82
2023/03/02 04:11:36;;;;;;;302.38;16.88;;;-0.60;100.00;;;;;;5021899;28;21742;-81
2023/03/02 04:14:03;;;;;;;275.83;16.67;;;-0.60;100.00;;;;;;5038579;28;20048;-81
2023/03/02 04:16:30;;;;;;;228.80;14.07;;;-0.70;100.00;;;;;;5034523;28;20119;-81
2023/03/02 04:18:59;;;;;;;232.65;16.08;;;-0.70;100.00;;;;;;5040374;28;20428;-81
2023/03/02 04:21:26;;;;;;;355.30;20.80;;;-0.70;100.00;;;;;;5039174;28;20064;-81
2023/03/02 04:23:53;;;;;;;219.77;15.15;;;-0.70;100.00;;;;;;5032167;28;20130;-81
2023/03/02 04:26:20;;;;;;;364.23;22.15;;;-0.70;100.00;;;;;;5052713;28;20072;-81
2023/03/02 04:28:49;;;;;;;189.63;13.98;;;-0.70;100.00;;;;;;5037604;28;20060;-81
2023/03/02 04:31:16;;;;;;;252.88;15.55;;;-0.70;100.00;;;;;;5044622;28;20041;-81
2023/03/02 04:33:44;;;;;;;149.18;14.05;;;-0.70;100.00;;;;;;5031928;28;20049;-81
2023/03/02 04:36:11;;;;;;;369.10;18.85;;;-0.60;100.00;;;;;;5038481;28;20045;-81
2023/03/02 04:38:37;;;;;;;351.25;15.70;;;-0.60;100.00;;;;;;5081256;28;20045;-81
2023/03/02 04:41:04;;;;;;;200.52;14.75;;;-0.60;100.00;;;;;;5030390;28;20053;-81
2023/03/02 04:43:31;;;;;;;135.18;12.30;;;-0.70;100.00;;;;;;5044689;28;20493;-81
2023/03/02 04:45:58;;;;;;;174.30;13.32;;;-0.70;100.00;;;;;;5048906;28;20091;-81
2023/03/02 04:48:25;;;;;;;182.50;13.80;;;-0.70;100.00;;;;;;5031110;28;20049;-81
2023/03/02 04:50:52;;;;;;;215.23;17.40;;;-0.70;100.00;;;;;;5060784;28;20049;-80
2023/03/02 04:53:19;;;;;;;206.82;15.85;;;-0.70;100.00;;;;;;5054375;28;20053;-81
2023/03/02 04:55:46;;;;;;;157.43;14.35;;;-0.70;100.00;;;;;;5048873;28;20409;-81
2023/03/02 04:58:13;;;;;;;96.68;12.80;;;-0.60;100.00;;;;;;5048224;28;20051;-81
2023/03/02 05:00:40;;;;;;;111.72;12.25;;;-0.60;100.00;;;;;;5049069;28;20084;-80
2023/03/02 05:03:07;;;;;;;205.73;14.55;;;-0.60;100.00;;;;;;5031487;28;20155;-80
2023/03/02 05:05:34;;;;;;;179.52;15.02;;;-0.60;100.00;;;;;;5049498;28;20052;-81
2023/03/02 05:08:01;;;;;;;150.48;12.48;;;-0.70;100.00;;;;;;5039380;28;20056;-82
2023/03/02 05:10:28;;;;;;;131.27;13.88;;;-0.70;100.00;;;;;;5034517;28;20044;-81
2023/03/02 05:13:01;;;;;;;75.35;12.27;;;-0.70;100.00;;;;;;5048192;28;20045;-81
2023/03/02 05:15:31;;;;;;;112.50;12.10;;;-0.70;100.00;;;;;;5033599;28;20041;-81
2023/03/02 05:17:59;;;;;;;228.77;15.82;;;-0.60;100.00;;;;;;5031831;28;20041;-81
2023/03/02 05:20:29;;;;;;;111.70;12.07;;;-0.60;100.00;;;;;;5026552;28;20521;-80
2023/03/02 05:23:02;;;;;;;68.43;13.00;;;-0.60;100.00;;;;;;5048980;28;20054;-81
2023/03/02 05:25:31;;;;;;;72.25;11.15;;;-0.50;100.00;;;;;;5031252;28;20056;-81
2023/03/02 05:27:59;;;;;;;113.55;11.32;;;-0.50;100.00;;;;;;5040836;28;20057;-81
2023/03/02 05:30:26;;;;;;;110.18;11.88;;;-0.50;100.00;;;;;;5052324;28;20067;-81
2023/03/02 05:32:54;;;;;;;188.20;14.88;;;-0.50;100.00;;;;;;5035368;28;20063;-81
2023/03/02 05:35:22;;;;;;;197.60;18.23;;;-0.40;100.00;;;;;;5043294;28;20049;-81
2023/03/02 05:37:49;;;;;;;98.78;14.57;;;-0.40;100.00;;;;;;5048627;28;20052;-81
2023/03/02 05:40:18;;;;;;;188.82;17.13;;;-0.40;100.00;;;;;;5028162;28;20073;-81
2023/03/02 05:42:45;;;;;;;306.05;31.45;;;-0.40;100.00;;;;;;5029587;28;20071;-81
2023/03/02 05:45:25;;;;;;;93.65;15.70;;;-0.50;100.00;;;;;;5036641;28;20128;-81
2023/03/02 05:47:52;;;;;;;107.47;12.98;;;-0.50;100.00;;;;;;5030012;28;20071;-80
2023/03/02 05:50:19;;;;;;;146.80;13.07;;;-0.50;100.00;;;;;;5030553;28;20049;-81
2023/03/02 05:52:46;;;;;;;177.38;16.00;;;-0.50;100.00;;;;;;5032018;28;20041;-81
2023/03/02 05:55:14;;;;;;;137.20;24.33;;;-0.50;100.00;;;;;;5036025;28;20079;-82
2023/03/02 05:57:42;;;;;;;158.95;16.52;;;-0.50;100.00;;;;;;5037508;28;20049;-81
2023/03/02 06:00:10;;;;;;;83.25;14.52;;;-0.50;100.00;;;;;;5030821;28;20060;-84
2023/03/02 06:02:38;;;;;;;84.80;14.38;;;-0.50;100.00;;;;;;5026698;28;20074;-84
2023/03/02 06:05:07;;;;;;;84.93;12.60;;;-0.50;100.00;;;;;;5038682;28;20052;-85
2023/03/02 06:07:33;;;;;;;71.32;11.68;;;-0.50;100.00;;;;;;5037048;28;20134;-83
2023/03/02 06:10:00;;;;;;;144.75;16.23;;;-0.50;100.00;;;;;;5037246;28;20065;-85
2023/03/02 06:12:27;;;;;;;101.78;13.68;;;-0.50;100.00;;;;;;5055091;28;20052;-82
2023/03/02 06:14:54;;;;;;;79.35;12.70;;;-0.50;100.00;;;;;;5038598;28;20132;-81
2023/03/02 06:17:21;;;;;;;66.35;12.98;;;-0.50;100.00;;;;;;5034879;28;20049;-83
2023/03/02 06:19:48;;;;;;;65.57;12.73;;;-0.50;100.00;;;;;;5066358;28;20048;-82
2023/03/02 06:22:15;;;;;;;56.55;12.60;;;-0.50;100.00;;;;;;5039523;28;20048;-81
2023/03/02 06:24:41;;;;;;;101.22;13.90;;;-0.50;100.00;;;;;;5043089;28;20049;-81
2023/03/02 06:27:08;;;;;;;71.82;13.18;;;-0.50;100.00;;;;;;5047650;28;20054;-79
2023/03/02 06:29:35;;;;;;;78.35;12.35;;;-0.50;100.00;;;;;;5036556;28;20128;-78
2023/03/02 06:32:02;;;;;;;99.30;13.20;;;-0.50;100.00;;;;;;5040581;28;20055;-79
2023/03/02 06:34:29;;;;;;;93.97;13.07;;;-0.40;100.00;;;;;;5074385;28;20057;-83
2023/03/02 06:36:56;;;;;;;94.38;14.52;;;-0.40;100.00;;;;;;5039129;28;20126;-78
2023/03/02 06:39:23;;;;;;;179.48;15.38;;;-0.40;100.00;;;;;;5054289;28;20051;-77
2023/03/02 06:41:50;;;;;;;102.53;13.07;;;-0.50;100.00;;;;;;5036449;28;20419;-79
2023/03/02 06:44:17;;;;;;;44.35;11.05;;;-0.50;100.00;;;;;;5033484;28;20057;-77
2023/03/02 06:46:44;;;;;;;70.88;11.57;;;-0.60;100.00;;;;;;5051633;28;20057;-78
2023/03/02 06:49:11;;;;;;;178.32;14.95;;;-0.50;100.00;;;;;;5074187;28;20129;-78
2023/03/02 06:51:40;;;;;;;86.00;12.85;;;-0.50;100.00;;;;;;5040196;28;20041;-77
2023/03/02 06:54:07;;;;;;;126.55;13.88;;;-0.50;100.00;;;;;;5035740;28;20517;-79
2023/03/02 06:56:34;;;;;;;82.15;12.90;;;-0.50;100.00;;;;;;5034473;28;20071;-78
2023/03/02 06:59:01;;;;;;;56.78;12.57;;;-0.50;100.00;;;;;;5029920;28;20053;-78
2023/03/02 07:01:34;;;;;;;109.43;13.73;;;-0.40;100.00;;;;;;5034985;28;20106;-79
2023/03/02 07:04:02;;;;;;;62.42;11.75;;;-0.40;100.00;;;;;;5047989;28;20045;-78
2023/03/02 07:06:29;;;;;;;69.25;12.43;;;-0.40;100.00;;;;;;5052660;28;20789;-78
2023/03/02 07:08:55;;;;;;;198.00;13.88;;;-0.40;100.00;;;;;;5056002;28;20048;-79
2023/03/02 07:11:22;;;;;;;72.20;12.15;;;-0.40;100.00;;;;;;5052994;28;20175;-78
2023/03/02 07:13:49;;;;;;;58.95;11.45;;;-0.40;100.00;;;;;;5041333;28;20056;-78
2023/03/02 07:16:16;;;;;;;61.95;9.65;;;-0.30;100.00;;;;;;5064892;28;20048;-79
2023/03/02 07:18:43;;;;;;;119.80;14.27;;;-0.30;100.00;;;;;;5039935;28;20128;-78
2023/03/02 07:21:10;;;;;;;93.93;11.95;;;-0.40;100.00;;;;;;5033113;28;20041;-77
2023/03/02 07:23:37;;;;;;;87.97;12.82;;;-0.30;100.00;;;;;;5051664;28;20048;-78
2023/03/02 07:26:07;;;;;;;50.13;10.85;;;-0.30;100.00;;;;;;5051679;28;20057;-79
2023/03/02 07:28:38;;;;;;;85.80;11.60;;;-0.30;100.00;;;;;;5051216;28;20052;-78
2023/03/02 07:31:06;;;;;;;68.13;11.35;;;-0.30;100.00;;;;;;5048825;28;20065;-78
2023/03/02 07:33:34;;;;;;;51.72;11.60;;;-0.30;100.00;;;;;;5021946;28;20838;-78
2023/03/02 07:36:01;;;;;;;59.13;11.52;;;-0.20;100.00;;;;;;5041781;28;20049;-78
2023/03/02 07:38:28;;;;;;;39.28;11.48;;;-0.20;100.00;;;;;;5023358;28;20089;-77
2023/03/02 07:40:55;;;;;;;130.05;11.98;;;-0.10;100.00;;;;;;5020354;28;20663;-78
2023/03/02 07:43:27;;;;;;;60.78;11.68;;;-0.10;100.00;;;;;;5013161;28;20053;-78
2023/03/02 07:45:54;;;;;;;88.43;12.13;;;-0.10;100.00;;;;;;5037025;28;20061;-77
2023/03/02 07:48:22;;;;;;;100.78;12.57;;;-0.10;100.00;;;;;;5066475;28;20053;-78
2023/03/02 07:50:49;;;;;;;53.20;10.98;;;-0.10;100.00;;;;;;5014977;28;20057;-78
2023/03/02 07:53:15;;;;;;;213.30;16.15;;;-0.10;100.00;;;;;;5031240;28;20140;-78
2023/03/02 07:55:42;;;;;;;119.30;12.98;;;-0.10;100.00;;;;;;5021701;28;20380;-78
2023/03/02 07:58:09;;;;;;;71.03;11.38;;;-0.10;100.00;;;;;;5014143;28;20137;-78
2023/03/02 08:00:37;;;;;;;70.50;12.27;;;0.00;100.00;;;;;;5026674;28;20072;-78
2023/03/02 08:03:07;;;;;;;81.13;14.13;;;0.00;100.00;;;;;;5030764;28;20041;-79
2023/03/02 08:05:34;;;;;;;89.03;14.52;;;0.00;100.00;;;;;;5008741;28;20061;-78
2023/03/02 08:08:01;;;;;;;71.70;13.95;;;0.00;100.00;;;;;;5036021;28;20834;-78
2023/03/02 08:10:28;;;;;;;79.47;14.00;;;0.00;100.00;;;;;;5036000;28;20044;-78
2023/03/02 08:12:54;;;;;;;68.35;11.45;;;0.00;100.00;;;;;;5022851;28;20059;-78
2023/03/02 08:15:22;;;;;;;69.90;12.48;;;0.10;100.00;;;;;;5015231;28;20045;-78
2023/03/02 08:17:49;;;;;;;90.47;12.52;;;0.10;100.00;;;;;;5033297;28;20049;-78
2023/03/02 08:20:16;;;;;;;67.50;12.48;;;0.10;100.00;;;;;;5034604;28;20102;-78
2023/03/02 08:22:42;;;;;;;70.28;11.18;;;0.20;100.00;;;;;;5033142;28;20056;-79
2023/03/02 08:25:09;;;;;;;103.63;13.05;;;0.20;100.00;;;;;;5014954;28;20055;-78
2023/03/02 08:27:39;;;;;;;48.72;10.10;;;0.20;100.00;;;;;;5030053;28;20041;-78
2023/03/02 08:30:07;;;;;;;70.13;12.60;;;0.10;100.00;;;;;;5035924;28;20053;-78
2023/03/02 08:32:33;;;;;;;100.45;11.88;;;0.20;100.00;;;;;;5036436;28;20061;-78
2023/03/02 08:35:01;;;;;;;54.72;12.02;;;0.30;100.00;;;;;;5020124;28;20044;-78
2023/03/02 08:37:28;;;;;;;53.15;12.02;;;0.30;100.00;;;;;;5048538;28;20049;-78
2023/03/02 08:39:55;;;;;;;50.67;11.45;;;0.40;100.00;;;;;;5012018;28;20748;-79
2023/03/02 08:42:24;;;;;;;61.78;11.70;;;0.40;100.00;;;;;;5032416;28;20988;-78
2023/03/02 08:44:51;;;;;;;36.25;10.65;;;0.40;100.00;;;;;;5026377;28;20051;-78
2023/03/02 08:47:17;;;;;;;46.90;10.57;;;0.40;100.00;;;;;;5025055;28;20042;-78
2023/03/02 08:49:44;;;;;;;74.65;9.85;;;0.50;100.00;;;;;;5029953;28;20049;-78
2023/03/02 08:52:14;;;;;;;87.40;10.30;;;0.50;100.00;;;;;;5059422;28;20057;-78
2023/03/02 08:54:41;;;;;;;69.97;12.40;;;0.50;100.00;;;;;;5022232;28;20053;-79
2023/03/02 08:57:11;;;;;;;42.80;12.02;;;0.60;100.00;;;;;;5049877;28;20489;-78
2023/03/02 08:59:38;;;;;;;95.22;18.58;;;0.60;100.00;;;;;;5037511;28;20145;-78
2023/03/02 09:02:10;;;;;;;62.30;13.70;;;0.70;100.00;;;;;;5022029;28;20612;-78
2023/03/02 09:04:37;;;;;;;50.33;10.68;;;0.60;100.00;;;;;;5035065;28;20145;-78
2023/03/02 09:07:04;;;;;;;105.05;12.93;;;0.70;100.00;;;;;;5011930;28;20064;-78
2023/03/02 09:09:31;;;;;;;46.63;14.32;;;0.70;100.00;;;;;;5029434;28;20867;-78
2023/03/02 09:11:58;;;;;;;38.35;11.45;;;0.90;100.00;;;;;;5014979;28;20061;-78
2023/03/02 09:14:26;;;;;;;66.63;12.20;;;0.90;100.00;;;;;;5017175;28;20057;-78
2023/03/02 09:16:53;;;;;;;62.75;18.90;;;1.00;100.00;;;;;;5034776;28;20049;-77
2023/03/02 09:19:20;;;;;;;86.82;11.13;;;0.90;100.00;;;;;;5050364;28;20125;-79
2023/03/02 09:21:48;;;;;;;70.95;17.13;;;0.80;100.00;;;;;;5041676;28;20084;-78
2023/03/02 09:24:16;;;;;;;47.35;12.98;;;0.90;100.00;;;;;;5014425;28;20060;-78
2023/03/02 09:26:43;;;;;;;59.53;11.93;;;1.00;100.00;;;;;;5033039;28;20869;-78
2023/03/02 09:29:10;;;;;;;45.45;11.35;;;0.90;100.00;;;;;;5027349;28;20516;-78
2023/03/02 09:31:37;;;;;;;38.15;12.18;;;1.00;100.00;;;;;;5014154;28;20054;-78
2023/03/02 09:34:05;;;;;;;53.63;12.25;;;1.00;100.00;;;;;;5018239;28;20045;-78
2023/03/02 09:36:33;;;;;;;53.47;11.82;;;1.00;100.00;;;;;;5028524;28;20053;-78
2023/03/02 09:39:00;;;;;;;107.18;13.45;;;1.00;100.00;;;;;;5029770;28;20159;-77
2023/03/02 09:41:54;;;;;;;69.47;11.38;;;1.00;100.00;;;;;;5013994;28;20045;-78
2023/03/02 09:44:55;;;;;;;53.15;10.88;;;0.80;100.00;;;;;;5032186;28;20041;-78
2023/03/02 09:47:29;;;;;;;55.83;9.55;;;0.90;100.00;;;;;;5015612;28;20505;-78
2023/03/02 09:50:25;;;;;;;53.88;10.05;;;0.80;100.00;;;;;;5011433;28;20522;-78
2023/03/02 09:56:38;;;;;;;63.08;12.25;;;0.80;100.00;;;;;;5080245;22;20103;-78
2023/03/02 09:59:25;;;;;;;63.80;10.85;;;0.90;100.00;;;;;;5053296;28;20500;-76
2023/03/02 10:02:00;;;;;;;43.92;9.68;;;0.80;100.00;;;;;;5061756;28;20056;-76
2023/03/02 10:04:29;;;;;;;33.58;9.38;;;0.90;100.00;;;;;;5056965;28;20044;-78
2023/03/02 10:07:12;;;;;;;35.75;10.07;;;0.90;100.00;;;;;;5067049;28;20158;-78
2023/03/02 10:09:40;;;;;;;47.88;10.57;;;0.90;100.00;;;;;;5066302;28;20110;-77
2023/03/02 10:12:22;;;;;;;65.47;11.70;;;1.10;100.00;;;;;;5067444;28;20053;-77
2023/03/02 10:15:00;;;;;;;41.80;11.15;;;1.20;100.00;;;;;;5047148;28;20061;-77
2023/03/02 10:17:36;;;;;;;48.15;10.52;;;1.40;100.00;;;;;;5047501;28;20148;-77
2023/03/02 10:20:09;;;;;;;30.20;10.50;;;1.50;100.00;;;;;;5046119;28;20057;-77
2023/03/02 10:22:44;;;;;;;36.53;10.13;;;1.40;100.00;;;;;;5046540;28;20055;-77
2023/03/02 10:25:23;;;;;;;34.92;10.60;;;1.50;100.00;;;;;;5046953;28;20515;-77
2023/03/02 10:27:53;;;;;;;36.33;10.77;;;1.60;100.00;;;;;;5069375;28;20045;-77
2023/03/02 10:30:35;;;;;;;49.40;10.35;;;1.70;99.30;;;;;;5064218;28;20111;-77
2023/03/02 10:33:14;;;;;;;33.47;10.43;;;1.60;98.50;;;;;;5063159;28;20060;-77
2023/03/02 10:35:46;;;;;;;32.38;10.32;;;1.70;98.60;;;;;;5059443;28;20081;-77
2023/03/02 10:38:15;;;;;;;37.20;10.40;;;1.80;98.60;;;;;;5060732;28;20136;-77
2023/03/02 10:40:48;;;;;;;37.17;10.15;;;1.80;98.70;;;;;;5053343;28;20524;-77
2023/03/02 10:43:25;;;;;;;42.65;10.45;;;1.80;99.10;;;;;;5078290;28;20638;-77
2023/03/02 10:46:08;;;;;;;31.60;10.65;;;1.80;98.70;;;;;;5069217;28;20048;-77
2023/03/02 10:48:57;;;;;;;49.63;11.13;;;1.80;98.80;;;;;;5065076;28;20117;-77
2023/03/02 10:51:33;;;;;;;36.92;10.25;;;2.00;98.60;;;;;;5058316;28;20140;-77
2023/03/02 10:54:10;;;;;;;37.75;11.00;;;1.90;98.60;;;;;;5052144;28;20555;-77
2023/03/02 10:56:40;;;;;;;32.50;10.90;;;1.80;98.70;;;;;;5061246;28;20058;-77
2023/03/02 10:59:28;;;;;;;34.75;11.07;;;1.80;98.50;;;;;;5072355;28;20053;-78
2023/03/02 11:02:22;;;;;;;28.83;10.10;;;1.80;98.90;;;;;;5065883;28;20048;-77
2023/03/02 11:04:53;;;;;;;31.45;10.63;;;1.80;98.30;;;;;;5054395;28;20087;-77
2023/03/02 11:07:27;;;;;;;32.83;10.75;;;1.80;98.20;;;;;;5069251;28;20040;-77
2023/03/02 11:10:03;;;;;;;30.08;8.45;;;1.70;98.40;;;;;;5068106;28;20506;-77
2023/03/02 11:12:34;;;;;;;26.05;8.60;;;1.70;97.90;;;;;;5061028;28;20048;-77
2023/03/02 11:15:24;;;;;;;28.75;9.13;;;1.70;97.90;;;;;;5064723;28;20056;-77
2023/03/02 11:17:59;;;;;;;28.40;10.10;;;1.80;98.30;;;;;;5049282;28;20048;-77
2023/03/02 11:20:37;;;;;;;31.87;10.33;;;1.90;97.50;;;;;;5056872;28;20144;-77
2023/03/02 11:23:16;;;;;;;35.75;13.30;;;1.90;97.20;;;;;;5068465;28;20044;-77
2023/03/02 11:25:57;;;;;;;30.92;10.48;;;2.00;97.30;;;;;;5074748;28;20059;-77
2023/03/02 11:28:46;;;;;;;36.67;10.13;;;2.00;97.10;;;;;;5074201;28;20489;-77
2023/03/02 11:31:28;;;;;;;32.50;10.55;;;1.90;97.30;;;;;;5082600;28;20045;-77
2023/03/02 11:33:58;;;;;;;33.05;10.65;;;2.00;97.90;;;;;;5067695;28;20044;-77
2023/03/02 11:36:55;;;;;;;30.52;9.20;;;2.00;97.60;;;;;;5076636;28;20044;-77
2023/03/02 11:39:28;;;;;;;28.23;10.43;;;2.00;97.70;;;;;;5070955;28;20106;-78
2023/03/02 11:41:55;;;;;;;31.88;11.00;;;2.10;97.10;;;;;;5070002;28;20080;-77
2023/03/02 11:44:23;;;;;;;36.97;12.10;;;2.10;97.40;;;;;;5068486;28;20044;-77
2023/03/02 11:46:57;;;;;;;30.42;9.30;;;2.10;97.10;;;;;;5068742;28;20044;-77
2023/03/02 11:49:35;;;;;;;32.30;10.18;;;2.00;97.30;;;;;;5068512;28;20461;-77
2023/03/02 11:52:02;;;;;;;24.40;8.43;;;2.00;97.20;;;;;;5084505;28;20071;-77
2023/03/02 11:54:42;;;;;;;28.23;8.82;;;2.00;96.70;;;;;;5063873;28;20087;-77
2023/03/02 11:57:47;;;;;;;43.33;14.82;;;2.00;96.90;;;;;;5055944;28;20063;-78
2023/03/02 12:00:26;;;;;;;31.42;11.93;;;2.10;97.30;;;;;;5037598;28;20053;-77
2023/03/02 12:03:06;;;;;;;23.58;8.10;;;2.20;96.60;;;;;;5069050;28;20045;-77
2023/03/02 12:05:36;;;;;;;20.98;7.53;;;1.80;95.00;;;;;;5062993;28;20207;-78
2023/03/02 12:08:25;;;;;;;33.60;9.10;;;1.90;96.60;;;;;;5067701;22;20819;-78
2023/03/02 12:10:59;;;;;;;33.22;11.55;;;2.00;96.30;;;;;;5091099;28;20070;-78
2023/03/02 12:13:38;;;;;;;24.13;9.60;;;2.00;96.10;;;;;;5093779;28;20066;-79
2023/03/02 12:16:34;;;;;;;30.40;10.85;;;2.10;95.50;;;;;;5110707;28;20054;-79
2023/03/02 12:19:26;;;;;;;27.48;9.15;;;2.10;95.10;;;;;;5092451;28;20788;-79
2023/03/02 12:22:04;;;;;;;26.13;9.23;;;2.10;95.80;;;;;;5098915;28;20446;-78
2023/03/02 12:24:37;;;;;;;35.75;11.82;;;2.10;96.00;;;;;;5111716;28;20055;-79
2023/03/02 12:27:19;;;;;;;34.92;11.32;;;2.10;96.90;;;;;;5092937;28;20048;-78
2023/03/02 12:29:50;;;;;;;34.88;10.32;;;2.20;96.90;;;;;;5111372;28;20047;-78
2023/03/02 12:32:17;;;;;;;33.45;10.45;;;2.30;97.60;;;;;;5094142;28;20044;-78
2023/03/02 12:34:55;;;;;;;56.58;17.13;;;2.20;96.30;;;;;;5111066;28;20047;-79
2023/03/02 12:37:57;;;;;;;36.72;11.57;;;2.00;97.50;;;;;;5093028;28;20070;-78
2023/03/02 12:40:39;;;;;;;31.65;10.85;;;1.90;97.00;;;;;;5067404;28;20587;-79